Time;durP1;ratioP1;P1;durP2;ratioP2;P2;SDS_P1;SDS_P2;PMS_P1;PMS_P2;Temp;Humidity;BMP_temperature;BMP_pressure;BME280_temperature;BME280_humidity;BME280_pressure;Samples;Min_cycle;Max_cycle;Signal;HPM_P1;HPM_P2
2021/06/24 00:00:48;;;;;;;1.30;0.65;;;24.20;52.10;;;;;;6290877;28;20413;-67
2021/06/24 00:03:49;;;;;;;1.23;0.60;;;24.10;52.00;;;;;;6291476;28;20071;-68
2021/06/24 00:06:49;;;;;;;0.90;0.70;;;24.10;52.10;;;;;;6274076;28;20021;-67
2021/06/24 00:09:50;;;;;;;0.70;0.40;;;24.10;52.00;;;;;;6266443;28;20036;-67
2021/06/24 00:12:51;;;;;;;0.82;0.60;;;24.10;52.10;;;;;;6288305;28;20158;-67
2021/06/24 00:15:53;;;;;;;1.48;0.65;;;24.20;52.10;;;;;;6290594;28;20080;-68
2021/06/24 00:18:54;;;;;;;0.35;0.35;;;24.10;52.10;;;;;;6290568;28;20055;-67
2021/06/24 00:21:54;;;;;;;0.50;0.40;;;24.10;52.10;;;;;;6290686;28;20020;-67
2021/06/24 00:24:55;;;;;;;0.60;0.50;;;24.10;52.10;;;;;;6290772;28;20232;-67
2021/06/24 00:27:55;;;;;;;1.05;0.63;;;24.10;52.10;;;;;;6290396;28;20048;-68
2021/06/24 00:30:57;;;;;;;1.00;0.50;;;24.10;52.10;;;;;;6290748;28;20021;-67
2021/06/24 00:33:57;;;;;;;0.57;0.57;;;24.10;52.10;;;;;;6290656;28;20029;-67
2021/06/24 00:36:58;;;;;;;0.70;0.70;;;24.10;52.10;;;;;;6277819;28;20549;-67
2021/06/24 00:39:59;;;;;;;0.65;0.60;;;24.20;52.20;;;;;;6290626;28;20109;-67
2021/06/24 00:43:01;;;;;;;0.93;0.65;;;24.10;52.10;;;;;;6290313;28;20379;-66
2021/06/24 00:46:02;;;;;;;1.20;0.73;;;24.10;52.10;;;;;;6289913;28;20028;-67
2021/06/24 00:49:03;;;;;;;0.63;0.50;;;24.10;52.10;;;;;;6290133;28;20399;-68
2021/06/24 00:52:04;;;;;;;0.40;0.40;;;24.10;52.20;;;;;;6290008;28;20052;-67
2021/06/24 00:55:05;;;;;;;0.73;0.52;;;24.20;52.20;;;;;;6243466;28;20625;-68
2021/06/24 00:58:12;;;;;;;0.70;0.60;;;24.10;52.20;;;;;;6274695;28;20364;-67
2021/06/24 01:01:13;;;;;;;0.60;0.50;;;24.10;52.20;;;;;;6289615;28;20028;-67
2021/06/24 01:04:19;;;;;;;0.60;0.55;;;24.10;52.20;;;;;;6289843;28;20020;-67
2021/06/24 01:07:20;;;;;;;0.95;0.52;;;24.10;52.20;;;;;;6289504;28;20028;-67
2021/06/24 01:10:20;;;;;;;0.65;0.60;;;24.10;52.10;;;;;;6285260;28;20424;-68
2021/06/24 01:13:21;;;;;;;0.77;0.60;;;24.10;52.20;;;;;;6281748;28;20428;-67
2021/06/24 01:16:22;;;;;;;0.70;0.60;;;24.10;52.20;;;;;;6289385;28;20499;-68
2021/06/24 01:19:22;;;;;;;1.00;0.60;;;24.10;52.20;;;;;;6289234;28;20046;-67
2021/06/24 01:22:23;;;;;;;0.57;0.40;;;24.20;52.20;;;;;;6289395;28;20132;-67
2021/06/24 01:25:23;;;;;;;0.35;0.35;;;24.10;52.20;;;;;;6289459;28;20032;-67
2021/06/24 01:28:24;;;;;;;0.70;0.60;;;24.10;52.20;;;;;;6289078;28;20032;-68
2021/06/24 01:31:24;;;;;;;0.47;0.47;;;24.20;52.20;;;;;;6289602;28;20055;-67
2021/06/24 01:34:25;;;;;;;0.45;0.43;;;24.10;52.20;;;;;;6289676;28;20477;-68
2021/06/24 01:37:25;;;;;;;0.60;0.47;;;24.20;52.20;;;;;;6288999;28;20119;-67
2021/06/24 01:40:27;;;;;;;0.63;0.57;;;24.10;52.20;;;;;;6289375;28;20036;-67
2021/06/24 01:43:28;;;;;;;0.70;0.70;;;24.20;52.30;;;;;;6289039;28;20479;-67
2021/06/24 01:46:28;;;;;;;0.50;0.50;;;24.10;52.20;;;;;;6289802;28;20032;-67
2021/06/24 01:49:30;;;;;;;0.90;0.50;;;24.20;53.00;;;;;;6288652;28;20410;-67
2021/06/24 01:52:31;;;;;;;0.93;0.50;;;24.10;52.20;;;;;;6283976;28;20511;-67
2021/06/24 01:55:32;;;;;;;0.50;0.50;;;24.10;52.30;;;;;;6239650;28;20021;-67
2021/06/24 01:58:33;;;;;;;0.43;0.43;;;24.20;52.30;;;;;;6262166;28;20491;-67
2021/06/24 02:01:33;;;;;;;0.70;0.50;;;24.20;52.30;;;;;;6288699;28;20056;-67
2021/06/24 02:04:34;;;;;;;0.95;0.50;;;24.10;52.30;;;;;;6289263;28;20107;-67
2021/06/24 02:07:39;;;;;;;0.50;0.50;;;24.20;52.30;;;;;;6288577;28;20020;-67
2021/06/24 02:10:40;;;;;;;0.40;0.40;;;24.10;52.30;;;;;;6286054;28;20056;-67
2021/06/24 02:13:40;;;;;;;0.55;0.32;;;24.10;52.30;;;;;;6279287;28;20041;-67
2021/06/24 02:16:41;;;;;;;0.68;0.50;;;24.10;52.30;;;;;;6293377;28;20029;-67
2021/06/24 02:19:42;;;;;;;1.10;0.50;;;24.10;52.30;;;;;;6293634;28;20036;-67
2021/06/24 02:22:44;;;;;;;0.60;0.50;;;24.10;52.30;;;;;;6293733;28;20364;-67
2021/06/24 02:25:45;;;;;;;0.50;0.50;;;24.10;52.30;;;;;;6293596;28;20130;-67
2021/06/24 02:28:45;;;;;;;0.63;0.50;;;24.10;52.30;;;;;;6293580;28;20071;-67
2021/06/24 02:31:46;;;;;;;0.50;0.50;;;24.10;52.30;;;;;;6293571;28;20036;-67
2021/06/24 02:34:47;;;;;;;0.80;0.50;;;24.10;52.30;;;;;;6293538;28;20510;-67
2021/06/24 02:37:48;;;;;;;0.75;0.70;;;24.10;52.30;;;;;;6293012;28;20036;-67
2021/06/24 02:40:49;;;;;;;0.60;0.50;;;24.10;52.30;;;;;;6293169;28;20033;-67
2021/06/24 02:43:49;;;;;;;0.55;0.50;;;24.10;53.00;;;;;;6292911;28;20486;-67
2021/06/24 02:46:50;;;;;;;0.40;0.40;;;24.10;52.30;;;;;;6292879;28;20167;-67
2021/06/24 02:49:51;;;;;;;0.50;0.43;;;24.10;52.30;;;;;;6292657;28;20040;-67
2021/06/24 02:52:51;;;;;;;0.40;0.40;;;24.10;52.30;;;;;;6281085;28;20044;-68
2021/06/24 02:55:52;;;;;;;0.55;0.50;;;24.10;52.30;;;;;;6288636;28;20456;-66
2021/06/24 02:58:52;;;;;;;0.57;0.52;;;24.10;52.30;;;;;;6292260;28;20037;-67
2021/06/24 03:01:53;;;;;;;0.95;0.52;;;24.10;52.40;;;;;;6292445;28;20086;-67
2021/06/24 03:04:53;;;;;;;0.50;0.50;;;24.10;52.30;;;;;;6293016;28;20276;-67
2021/06/24 03:07:54;;;;;;;0.77;0.45;;;24.10;52.30;;;;;;6293004;28;20028;-67
2021/06/24 03:10:55;;;;;;;0.70;0.50;;;24.10;52.30;;;;;;6283065;28;20083;-67
2021/06/24 03:13:56;;;;;;;0.60;0.50;;;24.10;52.30;;;;;;6268220;28;20352;-67
2021/06/24 03:16:57;;;;;;;0.60;0.50;;;24.10;52.30;;;;;;6292055;28;20028;-67
2021/06/24 03:19:57;;;;;;;0.50;0.50;;;24.10;52.30;;;;;;6291964;28;20035;-68
2021/06/24 03:22:59;;;;;;;0.60;0.50;;;24.10;52.40;;;;;;6292645;28;20520;-67
2021/06/24 03:26:00;;;;;;;0.50;0.50;;;24.10;52.40;;;;;;6292224;28;20028;-67
2021/06/24 03:29:01;;;;;;;0.50;0.40;;;24.10;53.00;;;;;;6290452;28;20059;-67
2021/06/24 03:32:01;;;;;;;0.50;0.50;;;24.10;52.40;;;;;;6291857;28;20086;-68
2021/06/24 03:35:02;;;;;;;0.40;0.40;;;24.10;52.40;;;;;;6291980;28;20250;-67
2021/06/24 03:38:03;;;;;;;0.40;0.40;;;24.10;52.40;;;;;;6291810;28;20598;-67
2021/06/24 03:41:04;;;;;;;0.52;0.45;;;24.10;52.40;;;;;;6281788;28;20257;-67
2021/06/24 03:44:05;;;;;;;0.93;0.60;;;24.10;52.40;;;;;;6267014;28;20029;-67
2021/06/24 03:47:05;;;;;;;0.28;0.22;;;24.10;52.40;;;;;;6289028;28;20024;-67
2021/06/24 03:50:06;;;;;;;0.50;0.50;;;24.10;52.40;;;;;;6291282;28;20074;-68
2021/06/24 03:53:07;;;;;;;0.60;0.50;;;24.10;52.40;;;;;;6277175;28;20049;-67
2021/06/24 03:56:09;;;;;;;0.93;0.60;;;24.10;52.40;;;;;;6267532;28;20379;-67
2021/06/24 04:03:07;;;;;;;0.50;0.50;;;24.10;52.40;;;;;;6291491;28;20032;-67
2021/06/24 04:06:08;;;;;;;1.30;0.50;;;24.10;52.40;;;;;;6290994;28;20082;-67
2021/06/24 04:09:09;;;;;;;0.95;0.65;;;24.10;52.40;;;;;;6290942;28;20020;-67
2021/06/24 04:12:10;;;;;;;1.35;0.60;;;24.10;52.40;;;;;;6290188;28;20027;-68
2021/06/24 04:15:11;;;;;;;0.55;0.52;;;24.10;52.40;;;;;;6290434;28;20527;-67
2021/06/24 04:18:12;;;;;;;1.83;0.50;;;24.10;52.40;;;;;;6290625;28;20032;-67
2021/06/24 04:21:12;;;;;;;0.60;0.50;;;24.10;52.40;;;;;;6290604;28;20431;-67
2021/06/24 04:24:13;;;;;;;1.30;0.77;;;24.10;52.40;;;;;;6291166;28;20025;-67
2021/06/24 04:27:13;;;;;;;0.60;0.60;;;24.10;52.40;;;;;;6290237;28;20021;-67
2021/06/24 04:30:15;;;;;;;0.65;0.65;;;24.10;52.40;;;;;;6290883;28;20467;-67
2021/06/24 04:33:15;;;;;;;0.82;0.70;;;24.10;52.40;;;;;;6289751;28;20089;-67
2021/06/24 04:36:16;;;;;;;0.57;0.57;;;24.10;52.40;;;;;;6290484;28;20037;-67
2021/06/24 04:39:16;;;;;;;1.05;0.70;;;24.10;52.40;;;;;;6290512;28;20117;-67
2021/06/24 04:42:17;;;;;;;0.70;0.70;;;24.10;52.40;;;;;;6290036;28;20024;-67
2021/06/24 04:45:18;;;;;;;1.38;0.63;;;24.10;52.40;;;;;;6290507;28;20028;-67
2021/06/24 04:48:19;;;;;;;0.85;0.60;;;24.10;52.50;;;;;;6289556;28;20029;-68
2021/06/24 04:51:20;;;;;;;0.80;0.60;;;24.10;52.40;;;;;;6289973;28;20054;-67
2021/06/24 04:54:30;;;;;;;1.00;0.77;;;24.10;52.40;;;;;;6238357;28;20386;-66
2021/06/24 04:57:30;;;;;;;0.57;0.50;;;24.10;52.50;;;;;;6247328;28;20521;-67
2021/06/24 05:00:31;;;;;;;0.93;0.63;;;24.10;52.50;;;;;;6256739;28;20473;-66
2021/06/24 05:03:32;;;;;;;0.60;0.60;;;24.10;52.50;;;;;;6211429;28;20088;-66
2021/06/24 05:06:33;;;;;;;0.70;0.57;;;24.10;52.50;;;;;;6215447;28;20037;-67
2021/06/24 05:09:39;;;;;;;0.63;0.60;;;24.10;52.50;;;;;;6256318;28;20037;-66
2021/06/24 05:12:39;;;;;;;0.85;0.70;;;24.10;52.50;;;;;;6310728;28;20638;-66
2021/06/24 05:15:42;;;;;;;0.90;0.70;;;24.10;52.50;;;;;;6256411;28;20052;-66
2021/06/24 05:18:43;;;;;;;1.00;0.60;;;24.10;52.50;;;;;;6256078;28;20033;-67
2021/06/24 05:21:43;;;;;;;1.00;0.70;;;24.10;52.50;;;;;;6256544;28;20503;-67
2021/06/24 05:24:44;;;;;;;0.95;0.88;;;24.10;52.50;;;;;;6256412;28;20029;-67
2021/06/24 05:27:46;;;;;;;0.90;0.70;;;24.10;52.50;;;;;;6297381;28;20076;-66
2021/06/24 05:30:47;;;;;;;1.20;0.60;;;24.10;52.50;;;;;;6361046;28;20023;-67
2021/06/24 05:33:48;;;;;;;1.33;0.70;;;24.10;52.50;;;;;;6360262;28;20037;-66
2021/06/24 05:36:48;;;;;;;0.95;0.70;;;24.10;52.50;;;;;;6358852;28;20023;-66
2021/06/24 05:39:50;;;;;;;1.10;0.70;;;24.10;52.50;;;;;;6256114;28;20090;-67
2021/06/24 05:42:50;;;;;;;0.82;0.70;;;24.10;52.50;;;;;;6256147;28;20068;-65
2021/06/24 05:45:51;;;;;;;0.95;0.85;;;24.10;52.50;;;;;;6255977;28;20033;-66
2021/06/24 05:48:52;;;;;;;0.70;0.60;;;24.10;52.50;;;;;;6255045;28;20509;-66
2021/06/24 05:51:52;;;;;;;1.08;0.73;;;24.10;52.50;;;;;;6255962;28;20469;-66
2021/06/24 05:54:53;;;;;;;0.70;0.70;;;24.10;52.50;;;;;;6234448;28;20024;-65
2021/06/24 05:57:53;;;;;;;0.98;0.80;;;24.10;52.50;;;;;;6263812;28;20030;-66
2021/06/24 06:00:55;;;;;;;0.77;0.50;;;24.10;52.50;;;;;;6268070;28;20022;-66
2021/06/24 06:03:56;;;;;;;0.90;0.65;;;24.10;52.50;;;;;;6235704;28;20022;-66
2021/06/24 06:06:56;;;;;;;0.88;0.70;;;24.10;52.50;;;;;;6216821;28;20405;-66
2021/06/24 06:09:57;;;;;;;0.60;0.60;;;24.10;52.50;;;;;;6234155;28;20034;-66
2021/06/24 06:12:57;;;;;;;1.10;0.80;;;24.10;52.50;;;;;;6219079;28;20657;-66
2021/06/24 06:15:58;;;;;;;1.17;0.60;;;24.10;52.50;;;;;;6239642;28;20334;-66
2021/06/24 06:18:59;;;;;;;0.70;0.70;;;24.10;52.50;;;;;;6240610;28;20046;-66
2021/06/24 06:21:59;;;;;;;1.30;0.70;;;24.10;52.50;;;;;;6240935;28;20041;-66
2021/06/24 06:25:00;;;;;;;1.52;0.70;;;24.10;52.50;;;;;;6239728;28;20021;-65
2021/06/24 06:28:01;;;;;;;0.77;0.77;;;24.10;52.60;;;;;;6240315;28;20097;-66
2021/06/24 06:31:02;;;;;;;0.70;0.70;;;24.10;52.60;;;;;;6240484;28;20029;-66
2021/06/24 06:34:03;;;;;;;0.90;0.80;;;24.10;52.60;;;;;;6239050;28;20025;-66
2021/06/24 06:37:04;;;;;;;0.80;0.70;;;24.10;52.60;;;;;;6240463;28;20057;-66
2021/06/24 06:40:05;;;;;;;0.68;0.68;;;24.10;52.60;;;;;;6307516;28;20111;-66
2021/06/24 06:43:07;;;;;;;1.33;0.70;;;24.10;52.60;;;;;;6343000;28;20020;-66
2021/06/24 06:46:07;;;;;;;0.98;0.65;;;24.10;52.60;;;;;;6241268;28;20033;-66
2021/06/24 06:49:08;;;;;;;1.25;0.75;;;24.10;52.60;;;;;;6269176;28;20392;-66
2021/06/24 06:52:08;;;;;;;0.85;0.70;;;24.10;52.60;;;;;;6342353;28;20512;-66
2021/06/24 06:55:10;;;;;;;1.63;0.70;;;24.10;52.60;;;;;;6233161;28;20438;-66
2021/06/24 06:58:10;;;;;;;0.60;0.60;;;24.10;52.60;;;;;;6239242;28;20022;-66
2021/06/24 07:01:11;;;;;;;0.82;0.73;;;24.10;52.60;;;;;;6335605;28;20428;-66
2021/06/24 07:04:11;;;;;;;1.45;0.98;;;24.10;52.60;;;;;;6318672;28;20022;-67
2021/06/24 07:07:12;;;;;;;0.70;0.52;;;24.10;52.60;;;;;;6222091;28;20121;-69
2021/06/24 07:10:13;;;;;;;1.20;0.90;;;24.10;52.60;;;;;;6258730;28;20429;-66
2021/06/24 07:13:14;;;;;;;0.98;0.73;;;24.10;52.60;;;;;;6300510;28;20027;-66
2021/06/24 07:16:15;;;;;;;0.75;0.70;;;24.10;52.70;;;;;;6229493;28;20431;-67
2021/06/24 07:19:15;;;;;;;0.70;0.70;;;24.10;52.60;;;;;;6236735;28;20474;-67
2021/06/24 07:22:16;;;;;;;1.05;0.85;;;24.10;52.60;;;;;;6240352;28;20067;-67
2021/06/24 07:25:19;;;;;;;0.70;0.70;;;24.10;52.60;;;;;;6238230;28;20125;-67
2021/06/24 07:28:19;;;;;;;0.98;0.70;;;24.10;52.60;;;;;;6222259;28;20025;-67
2021/06/24 07:31:20;;;;;;;1.13;0.90;;;24.10;52.70;;;;;;6237610;28;20040;-67
2021/06/24 07:34:20;;;;;;;0.70;0.70;;;24.10;52.60;;;;;;6307347;28;20110;-67
2021/06/24 07:37:21;;;;;;;0.98;0.88;;;24.10;52.60;;;;;;6240822;28;20021;-68
2021/06/24 07:40:22;;;;;;;0.73;0.70;;;24.10;52.60;;;;;;6311812;28;20034;-67
2021/06/24 07:43:22;;;;;;;1.55;0.85;;;24.10;52.60;;;;;;6270462;28;20035;-67
2021/06/24 07:46:27;;;;;;;1.52;0.90;;;24.10;52.70;;;;;;6280815;28;20022;-67
2021/06/24 07:49:28;;;;;;;0.90;0.83;;;24.10;52.60;;;;;;6304216;28;20024;-68
2021/06/24 07:52:29;;;;;;;1.13;0.80;;;24.10;52.70;;;;;;6273757;28;20327;-68
2021/06/24 07:55:36;;;;;;;1.92;0.98;;;24.10;52.70;;;;;;6248668;28;20035;-67
2021/06/24 07:58:38;;;;;;;1.20;0.90;;;24.10;52.70;;;;;;6341594;28;20023;-67
2021/06/24 08:01:38;;;;;;;1.45;0.90;;;24.10;52.70;;;;;;6271388;28;20097;-71
2021/06/24 08:04:39;;;;;;;0.80;0.80;;;24.10;52.70;;;;;;6229436;28;20020;-67
2021/06/24 08:07:44;;;;;;;1.05;0.90;;;24.10;52.70;;;;;;6240157;28;20031;-67
2021/06/24 08:10:44;;;;;;;1.13;1.02;;;24.10;52.70;;;;;;6234779;28;20022;-67
2021/06/24 08:13:45;;;;;;;1.65;0.90;;;24.10;52.70;;;;;;6237674;28;20529;-67
2021/06/24 08:16:45;;;;;;;1.45;1.00;;;24.10;53.10;;;;;;6216930;28;20057;-67
2021/06/24 08:19:46;;;;;;;5.78;2.40;;;24.00;53.20;;;;;;6215808;28;20034;-67
2021/06/24 08:22:46;;;;;;;4.20;1.48;;;24.00;54.20;;;;;;6215623;28;20042;-67
2021/06/24 08:25:48;;;;;;;2.22;1.35;;;24.00;54.10;;;;;;6213705;28;20465;-67
2021/06/24 08:28:50;;;;;;;3.63;2.00;;;23.90;54.10;;;;;;6212038;28;20393;-67
2021/06/24 08:31:50;;;;;;;4.25;1.83;;;23.90;54.50;;;;;;6223831;28;20037;-67
2021/06/24 08:34:51;;;;;;;4.40;2.30;;;23.90;54.60;;;;;;6249177;28;20526;-67
2021/06/24 08:37:51;;;;;;;8.65;2.60;;;23.90;54.90;;;;;;6236993;28;20482;-67
2021/06/24 08:40:55;;;;;;;4.10;1.83;;;23.80;55.10;;;;;;6208630;28;20113;-67
2021/06/24 08:43:56;;;;;;;5.18;2.38;;;23.90;55.00;;;;;;6235670;28;20037;-67
2021/06/24 08:46:58;;;;;;;6.15;2.28;;;23.80;55.10;;;;;;6287997;28;20037;-66
2021/06/24 08:50:00;;;;;;;8.38;2.80;;;23.80;55.40;;;;;;6237753;28;20057;-67
2021/06/24 08:53:00;;;;;;;8.68;3.17;;;23.80;55.20;;;;;;6230878;28;20038;-67
2021/06/24 08:56:01;;;;;;;6.15;2.70;;;23.90;55.60;;;;;;6310632;28;20103;-67
2021/06/24 08:59:02;;;;;;;8.27;3.13;;;23.80;55.60;;;;;;6239967;28;20064;-67
2021/06/24 09:02:06;;;;;;;8.32;3.25;;;23.80;55.70;;;;;;6226354;28;20106;-67
2021/06/24 09:05:08;;;;;;;8.55;3.20;;;23.80;56.20;;;;;;6262961;28;20305;-67
2021/06/24 09:08:08;;;;;;;5.82;2.80;;;23.80;56.10;;;;;;6247195;28;20438;-67
2021/06/24 09:11:11;;;;;;;7.13;3.33;;;23.80;55.90;;;;;;6204033;28;20033;-67
2021/06/24 09:14:15;;;;;;;12.13;3.00;;;23.80;56.00;;;;;;6196478;28;20033;-67
2021/06/24 09:17:38;;;;;;;7.32;3.40;;;23.80;56.00;;;;;;6222984;28;20379;-67
2021/06/24 09:20:39;;;;;;;7.88;3.47;;;23.80;56.00;;;;;;6250207;28;20027;-66
2021/06/24 09:23:39;;;;;;;6.60;3.55;;;23.80;56.60;;;;;;6275463;28;20029;-67
2021/06/24 09:26:40;;;;;;;11.88;3.28;;;23.80;57.00;;;;;;6223251;28;20034;-67
2021/06/24 09:29:41;;;;;;;11.52;3.95;;;23.80;56.40;;;;;;6233632;28;20037;-67
2021/06/24 09:32:45;;;;;;;7.63;3.78;;;23.80;56.80;;;;;;6230508;28;20042;-67
2021/06/24 09:35:54;;;;;;;12.10;4.18;;;23.80;56.50;;;;;;6269708;28;20483;-67
2021/06/24 09:38:54;;;;;;;9.43;3.47;;;23.80;56.30;;;;;;6244492;28;20036;-67
2021/06/24 09:42:08;;;;;;;7.80;3.55;;;23.80;56.30;;;;;;6228959;28;20390;-68
2021/06/24 09:45:10;;;;;;;16.13;4.93;;;23.80;56.30;;;;;;6200047;28;20100;-68
2021/06/24 09:48:12;;;;;;;10.27;3.78;;;23.80;56.70;;;;;;6240674;28;20490;-67
2021/06/24 09:51:17;;;;;;;10.52;4.22;;;23.80;56.60;;;;;;6239676;28;20465;-67
2021/06/24 09:54:19;;;;;;;5.47;3.10;;;23.80;56.40;;;;;;6240086;28;20109;-66
2021/06/24 09:57:24;;;;;;;8.98;3.90;;;23.80;56.30;;;;;;6293834;28;20530;-67
2021/06/24 10:00:33;;;;;;;10.90;3.40;;;23.90;56.30;;;;;;6199375;28;20040;-67
2021/06/24 10:03:33;;;;;;;9.05;3.47;;;23.90;56.20;;;;;;6214608;28;20025;-67
2021/06/24 10:06:34;;;;;;;8.40;3.33;;;24.00;56.10;;;;;;6292541;28;20038;-67
2021/06/24 10:09:35;;;;;;;7.93;3.33;;;24.00;55.70;;;;;;6271772;28;20026;-67
2021/06/24 10:12:37;;;;;;;8.25;3.13;;;24.10;55.70;;;;;;6316825;28;20077;-67
2021/06/24 10:15:38;;;;;;;5.18;2.72;;;24.10;56.30;;;;;;6258826;28;20018;-66
2021/06/24 10:18:39;;;;;;;4.90;2.83;;;24.10;55.40;;;;;;6325241;28;20018;-67
2021/06/24 10:21:42;;;;;;;8.82;3.08;;;24.10;56.00;;;;;;6239755;28;20013;-66
2021/06/24 10:24:55;;;;;;;7.38;3.13;;;24.00;55.30;;;;;;6230023;28;20028;-67
2021/06/24 10:27:57;;;;;;;9.02;2.95;;;24.10;55.30;;;;;;6232641;28;20026;-66
2021/06/24 10:30:58;;;;;;;7.45;2.83;;;24.00;55.30;;;;;;6231822;28;20062;-66
2021/06/24 10:34:02;;;;;;;6.63;2.90;;;24.10;55.30;;;;;;6239538;28;20055;-67
2021/06/24 10:37:11;;;;;;;7.65;3.17;;;24.00;55.20;;;;;;6239051;28;20422;-67
2021/06/24 10:40:34;;;;;;;9.82;3.40;;;24.00;56.30;;;;;;6239562;28;20026;-67
2021/06/24 10:43:46;;;;;;;12.45;4.20;;;24.00;56.30;;;;;;6331656;28;20480;-66
2021/06/24 10:47:03;;;;;;;13.02;4.68;;;24.00;56.80;;;;;;6270170;28;20047;-67
2021/06/24 10:50:32;;;;;;;8.95;4.28;;;24.00;57.30;;;;;;6343770;28;20645;-67
2021/06/24 10:53:32;;;;;;;9.32;3.85;;;24.00;57.30;;;;;;6243143;28;20498;-67
2021/06/24 10:56:41;;;;;;;15.15;3.58;;;24.00;57.10;;;;;;6236505;28;20022;-66
2021/06/24 10:59:42;;;;;;;11.43;4.68;;;24.00;57.90;;;;;;6238896;28;20025;-66
2021/06/24 11:02:49;;;;;;;10.95;4.13;;;24.00;57.20;;;;;;6294031;28;20070;-66
2021/06/24 11:05:51;;;;;;;12.60;5.00;;;23.90;57.20;;;;;;6339721;28;20367;-66
2021/06/24 11:09:12;;;;;;;8.95;4.47;;;23.90;58.20;;;;;;6341671;28;20503;-67
2021/06/24 11:12:48;;;;;;;9.98;4.65;;;24.00;57.90;;;;;;6202032;28;20128;-66
2021/06/24 11:15:54;;;;;;;9.27;4.07;;;24.00;57.60;;;;;;6215055;28;20048;-66
2021/06/24 11:19:14;;;;;;;9.82;4.00;;;23.90;57.40;;;;;;6234568;28;20025;-66
2021/06/24 11:22:44;;;;;;;7.97;3.33;;;23.90;57.30;;;;;;6238791;28;20017;-66
2021/06/24 11:26:06;;;;;;;10.98;4.32;;;23.90;57.30;;;;;;6238886;28;20040;-66
2021/06/24 11:29:34;;;;;;;11.20;3.50;;;23.90;57.20;;;;;;6246844;28;20025;-66
2021/06/24 11:32:39;;;;;;;10.32;4.20;;;23.90;57.20;;;;;;6340767;28;20417;-66
2021/06/24 11:35:57;;;;;;;7.68;3.10;;;23.90;57.20;;;;;;6303435;28;20029;-66
2021/06/24 11:38:58;;;;;;;13.57;3.90;;;23.90;57.30;;;;;;6312782;28;20240;-66
2021/06/24 11:42:00;;;;;;;8.35;4.05;;;23.90;57.40;;;;;;6279261;28;20039;-66
2021/06/24 11:45:02;;;;;;;8.32;4.03;;;23.90;57.20;;;;;;6248356;28;20098;-66
2021/06/24 11:48:03;;;;;;;18.42;4.35;;;23.90;57.20;;;;;;6233813;28;20396;-71
2021/06/24 12:04:16;;;;;;;8.85;3.35;;;24.00;56.50;;;;;;6234981;28;20118;-66
2021/06/24 12:07:16;;;;;;;10.95;3.75;;;24.00;56.50;;;;;;6268127;28;20018;-75
2021/06/24 12:10:24;;;;;;;10.65;3.97;;;24.00;56.30;;;;;;6235390;28;20512;-66
2021/06/24 12:13:32;;;;;;;7.70;3.53;;;24.00;56.30;;;;;;6217991;28;20074;-66
2021/06/24 12:16:33;;;;;;;9.15;3.17;;;24.00;56.30;;;;;;6251236;28;20054;-66
2021/06/24 12:19:44;;;;;;;5.63;3.17;;;24.00;56.20;;;;;;6317768;28;20088;-66
2021/06/24 12:22:48;;;;;;;6.00;3.10;;;24.00;56.10;;;;;;6273367;28;20101;-66
2021/06/24 12:25:49;;;;;;;7.63;3.10;;;24.00;56.00;;;;;;6189978;28;20065;-66
2021/06/24 12:28:49;;;;;;;5.95;3.10;;;24.00;55.90;;;;;;6213307;28;20265;-66
2021/06/24 12:31:59;;;;;;;5.28;2.80;;;24.10;55.90;;;;;;6280802;28;20033;-66
2021/06/24 12:35:01;;;;;;;4.13;2.80;;;24.00;55.80;;;;;;6239290;28;20024;-65
2021/06/24 12:38:05;;;;;;;5.18;2.42;;;24.00;55.60;;;;;;6255029;28;20025;-66
2021/06/24 12:41:13;;;;;;;5.00;2.53;;;24.00;55.60;;;;;;6189517;28;20449;-65
2021/06/24 12:44:14;;;;;;;4.65;2.60;;;24.00;55.50;;;;;;6268157;28;20115;-66
2021/06/24 12:47:43;;;;;;;4.80;2.75;;;24.00;55.50;;;;;;6214886;28;20150;-65
2021/06/24 12:50:44;;;;;;;6.55;2.83;;;24.00;55.40;;;;;;6217086;28;20501;-66
2021/06/24 12:53:49;;;;;;;4.63;2.70;;;24.00;55.40;;;;;;6245436;28;20612;-66
2021/06/24 12:56:50;;;;;;;;;;;24.00;55.30;;;;;;6237005;28;20363;-65
2021/06/24 12:59:51;;;;;;;4.85;2.60;;;24.10;55.30;;;;;;6227812;28;19906;-66
2021/06/24 13:02:52;;;;;;;5.30;2.58;;;24.00;55.70;;;;;;6224732;28;20075;-65
2021/06/24 13:06:06;;;;;;;4.75;2.42;;;24.00;55.60;;;;;;6239944;28;20553;-66
2021/06/24 13:09:14;;;;;;;6.45;3.10;;;24.00;55.80;;;;;;6250794;28;20027;-65
2021/06/24 13:12:16;;;;;;;5.63;2.40;;;24.00;55.50;;;;;;6319726;28;20091;-66
2021/06/24 13:15:34;;;;;;;7.85;2.70;;;24.00;55.80;;;;;;6217329;28;20030;-66
2021/06/24 13:18:53;;;;;;;7.82;2.63;;;24.00;55.70;;;;;;6230939;28;20317;-66
2021/06/24 13:21:59;;;;;;;5.90;2.80;;;24.00;55.60;;;;;;6342991;28;20024;-66
2021/06/24 13:25:03;;;;;;;6.13;2.55;;;24.00;55.70;;;;;;6233184;28;20071;-66
2021/06/24 13:28:05;;;;;;;6.68;2.58;;;24.00;55.60;;;;;;6224959;28;20018;-66
2021/06/24 13:31:07;;;;;;;5.90;2.40;;;24.00;55.50;;;;;;6317740;28;20027;-66
2021/06/24 13:34:07;;;;;;;4.38;2.35;;;24.00;55.30;;;;;;6288612;28;20553;-65
2021/06/24 13:37:16;;;;;;;3.78;2.10;;;24.00;55.30;;;;;;6216728;28;20030;-66
2021/06/24 13:40:19;;;;;;;9.23;2.85;;;23.90;55.30;;;;;;6209031;28;20036;-65
2021/06/24 13:43:20;;;;;;;4.88;2.20;;;23.90;55.20;;;;;;6224451;28;20037;-66
2021/06/24 13:46:20;;;;;;;5.85;2.50;;;23.90;55.20;;;;;;6225620;28;20078;-66
2021/06/24 13:49:23;;;;;;;6.40;2.63;;;23.90;55.20;;;;;;6296076;28;20036;-65
2021/06/24 13:52:23;;;;;;;5.15;2.45;;;23.90;55.20;;;;;;6219548;28;20573;-66
2021/06/24 13:55:24;;;;;;;7.60;3.00;;;23.90;55.00;;;;;;6257760;28;20019;-66
2021/06/24 13:58:25;;;;;;;7.07;2.75;;;23.90;54.70;;;;;;6282229;28;20033;-65
2021/06/24 14:01:27;;;;;;;5.80;2.70;;;23.90;54.80;;;;;;6226596;28;20014;-66
2021/06/24 14:04:27;;;;;;;5.50;2.30;;;23.90;54.90;;;;;;6231640;28;20314;-66
2021/06/24 14:07:28;;;;;;;8.18;2.88;;;23.90;54.90;;;;;;6340718;28;20040;-66
2021/06/24 14:10:30;;;;;;;4.20;2.40;;;23.90;54.80;;;;;;6254969;28;20038;-66
2021/06/24 14:13:33;;;;;;;6.55;2.60;;;23.90;54.80;;;;;;6225460;28;20114;-65
2021/06/24 14:16:35;;;;;;;7.07;2.70;;;23.90;54.90;;;;;;6296850;28;20222;-66
2021/06/24 14:19:36;;;;;;;6.43;2.75;;;23.90;55.00;;;;;;6291192;28;20015;-67
2021/06/24 14:22:37;;;;;;;6.47;2.38;;;23.90;55.10;;;;;;6318566;28;20059;-68
2021/06/24 14:25:37;;;;;;;3.05;2.10;;;23.90;55.20;;;;;;6260798;28;20056;-66
2021/06/24 14:28:38;;;;;;;4.88;2.40;;;23.90;55.20;;;;;;6337011;28;20031;-70
2021/06/24 14:31:39;;;;;;;9.07;2.88;;;23.90;55.20;;;;;;6291423;28;20022;-65
2021/06/24 14:34:39;;;;;;;8.18;2.63;;;23.90;55.30;;;;;;6230195;28;20036;-65
2021/06/24 14:37:40;;;;;;;4.28;2.20;;;23.80;55.30;;;;;;6232130;28;20022;-65
2021/06/24 14:40:41;;;;;;;3.83;2.03;;;23.90;55.30;;;;;;6220593;28;20026;-65
2021/06/24 14:43:42;;;;;;;6.25;2.47;;;23.80;55.30;;;;;;6192828;28;20049;-65
2021/06/24 14:46:42;;;;;;;9.02;2.50;;;23.80;55.40;;;;;;6252553;28;20492;-66
2021/06/24 14:49:43;;;;;;;6.03;2.50;;;23.80;55.60;;;;;;6344116;28;20028;-66
2021/06/24 14:52:44;;;;;;;8.30;3.13;;;23.80;56.40;;;;;;6322057;28;20046;-66
2021/06/24 14:55:44;;;;;;;6.25;2.60;;;23.80;56.10;;;;;;6267449;28;20534;-66
2021/06/24 14:58:49;;;;;;;6.20;2.80;;;23.80;56.00;;;;;;6261743;28;20022;-65
2021/06/24 15:01:49;;;;;;;10.97;2.70;;;23.80;56.20;;;;;;6253233;28;20018;-66
2021/06/24 15:04:50;;;;;;;6.07;2.75;;;23.80;56.30;;;;;;6239691;28;20097;-66
2021/06/24 15:07:50;;;;;;;6.55;2.60;;;23.80;56.60;;;;;;6227354;28;20026;-66
2021/06/24 15:10:51;;;;;;;4.97;2.13;;;23.80;56.40;;;;;;6257445;28;20108;-66
2021/06/24 15:13:53;;;;;;;3.88;2.50;;;23.80;56.50;;;;;;6327102;28;20133;-67
2021/06/24 15:16:53;;;;;;;4.22;2.38;;;23.80;56.60;;;;;;6269126;28;20020;-66
2021/06/24 15:19:54;;;;;;;3.75;2.15;;;23.80;56.50;;;;;;6316667;28;20070;-66
2021/06/24 15:22:56;;;;;;;6.50;2.63;;;23.80;57.10;;;;;;6260266;28;20034;-66
2021/06/24 15:25:56;;;;;;;3.70;1.90;;;23.80;57.30;;;;;;6226020;28;20660;-66
2021/06/24 15:28:57;;;;;;;4.05;2.40;;;23.80;56.80;;;;;;6236930;28;20026;-66
2021/06/24 15:31:57;;;;;;;2.88;1.85;;;23.80;57.40;;;;;;6257533;28;20053;-66
2021/06/24 15:34:58;;;;;;;3.65;1.75;;;23.80;57.20;;;;;;6317683;28;20521;-66
2021/06/24 15:38:01;;;;;;;4.10;2.00;;;23.80;57.40;;;;;;6248217;28;20022;-66
2021/06/24 15:41:02;;;;;;;4.40;2.33;;;23.80;58.10;;;;;;6253032;28;20442;-66
2021/06/24 15:44:03;;;;;;;7.82;2.50;;;23.80;57.10;;;;;;6325692;28;20039;-66
2021/06/24 15:47:04;;;;;;;5.22;2.15;;;23.80;57.30;;;;;;6253111;28;20061;-65
2021/06/24 15:50:05;;;;;;;3.90;2.50;;;23.80;57.10;;;;;;6194320;28;20018;-66
2021/06/24 15:53:06;;;;;;;6.13;2.15;;;23.90;57.10;;;;;;6230248;28;20046;-66
2021/06/24 15:56:07;;;;;;;3.90;2.15;;;23.90;57.00;;;;;;6263349;28;20536;-65
2021/06/24 15:59:08;;;;;;;4.25;2.17;;;23.90;56.80;;;;;;6238403;28;20090;-66
2021/06/24 16:02:09;;;;;;;7.38;2.22;;;23.90;56.70;;;;;;6257819;28;20494;-66
2021/06/24 16:05:11;;;;;;;3.75;1.92;;;23.90;56.40;;;;;;6239631;28;20144;-66